Time;durP1;ratioP1;P1;durP2;ratioP2;P2;SDS_P1;SDS_P2;PMS_P1;PMS_P2;Temp;Humidity;BMP_temperature;BMP_pressure;BME280_temperature;BME280_humidity;BME280_pressure;Samples;Min_cycle;Max_cycle;Signal;HPM_P1;HPM_P2
2024/01/03 00:05:48;;;;;;;11.27;1.63;;;10.40;82.20;;;;;;20848023;28;20421;-41
2024/01/03 00:16:04;;;;;;;10.52;1.52;;;10.20;90.10;;;;;;20855726;28;20060;-41
2024/01/03 00:26:07;;;;;;;17.42;1.73;;;10.20;99.90;;;;;;20874149;28;20056;-41
2024/01/03 00:36:09;;;;;;;9.95;1.63;;;10.20;99.90;;;;;;20869921;28;20646;-41
2024/01/03 00:46:12;;;;;;;13.23;1.77;;;10.20;99.90;;;;;;20869474;28;20113;-41
2024/01/03 00:56:12;;;;;;;12.48;1.63;;;9.90;99.90;;;;;;20865770;28;20408;-41
2024/01/03 01:06:13;;;;;;;21.17;4.15;;;9.70;99.90;;;;;;20868971;28;20459;-41
2024/01/03 01:16:14;;;;;;;18.90;2.50;;;9.70;99.90;;;;;;20865155;28;20129;-40
2024/01/03 01:26:14;;;;;;;27.55;3.38;;;10.00;93.00;;;;;;20863017;28;20182;-40
2024/01/03 01:36:15;;;;;;;26.90;4.50;;;10.20;64.20;;;;;;20861117;28;20579;-41
2024/01/03 01:46:17;;;;;;;19.02;2.80;;;10.30;49.00;;;;;;20862407;28;20056;-40
2024/01/03 01:56:19;;;;;;;20.73;3.25;;;10.50;22.60;;;;;;20861932;28;20095;-40
2024/01/03 02:06:20;;;;;;;17.15;2.65;;;10.60;17.30;;;;;;20856873;28;20079;-40
2024/01/03 02:16:22;;;;;;;14.45;2.75;;;10.70;10.80;;;;;;20861895;28;20136;-41
2024/01/03 02:26:22;;;;;;;20.15;3.30;;;10.80;3.10;;;;;;20854873;28;20032;-40
2024/01/03 02:36:23;;;;;;;19.23;3.00;;;10.80;1.40;;;;;;20855588;28;20526;-40
2024/01/03 02:46:24;;;;;;;14.30;2.45;;;10.70;2.60;;;;;;20854139;28;20057;-40
2024/01/03 02:56:24;;;;;;;20.95;3.00;;;10.80;1.00;;;;;;20863417;28;20060;-40
2024/01/03 03:06:25;;;;;;;16.05;2.65;;;10.90;1.00;;;;;;20854027;28;20339;-40
2024/01/03 03:16:25;;;;;;;16.83;2.50;;;10.90;1.00;;;;;;20858007;28;20080;-40
2024/01/03 03:26:26;;;;;;;19.17;2.77;;;10.90;1.00;;;;;;20853536;28;20120;-40
2024/01/03 03:36:26;;;;;;;17.75;2.55;;;10.90;1.00;;;;;;20851225;28;20056;-40
2024/01/03 03:46:27;;;;;;;17.73;2.80;;;11.00;1.00;;;;;;20856328;28;20123;-40
2024/01/03 03:56:32;;;;;;;23.08;4.18;;;11.10;1.00;;;;;;20867274;28;20041;-40
2024/01/03 04:06:32;;;;;;;19.60;3.38;;;11.10;1.00;;;;;;20869078;28;20045;-41
2024/01/03 04:16:33;;;;;;;21.13;3.50;;;11.10;1.70;;;;;;20868800;28;20091;-41
2024/01/03 04:26:34;;;;;;;29.13;4.15;;;11.10;3.00;;;;;;20870523;28;20071;-40
2024/01/03 04:36:34;;;;;;;29.00;3.22;;;11.20;2.80;;;;;;20865261;28;20052;-41
2024/01/03 04:46:35;;;;;;;26.13;3.50;;;11.10;5.20;;;;;;20863314;28;20064;-40
2024/01/03 04:56:35;;;;;;;26.50;3.67;;;11.10;6.50;;;;;;20863216;28;20136;-40
2024/01/03 05:06:37;;;;;;;23.70;4.03;;;11.10;5.80;;;;;;20863811;28;20064;-40
2024/01/03 05:16:37;;;;;;;29.95;4.38;;;11.20;5.50;;;;;;20866439;28;20507;-41
2024/01/03 05:26:38;;;;;;;28.65;4.47;;;11.20;3.40;;;;;;20859172;28;20065;-41
2024/01/03 05:36:38;;;;;;;23.73;3.75;;;11.20;3.50;;;;;;20863583;28;20053;-41
2024/01/03 05:46:40;;;;;;;22.17;4.10;;;11.20;3.00;;;;;;20856092;28;20418;-41
2024/01/03 05:56:40;;;;;;;19.33;2.65;;;10.90;26.80;;;;;;20850566;28;20056;-41
2024/01/03 06:06:41;;;;;;;18.98;2.70;;;10.50;58.30;;;;;;20851709;28;20041;-41
2024/01/03 06:16:42;;;;;;;16.00;2.00;;;10.40;82.10;;;;;;20845253;28;20040;-40
2024/01/03 06:26:42;;;;;;;17.70;2.38;;;10.40;71.20;;;;;;20856348;28;20697;-41
2024/01/03 06:36:43;;;;;;;12.45;2.15;;;10.30;83.70;;;;;;20827324;28;20049;-40
2024/01/03 06:46:43;;;;;;;13.18;1.92;;;10.30;88.60;;;;;;20851577;28;20132;-40
2024/01/03 06:56:44;;;;;;;15.55;2.08;;;10.20;97.40;;;;;;20849722;28;20083;-40
2024/01/03 07:06:44;;;;;;;12.45;2.08;;;10.10;99.90;;;;;;20852612;28;20110;-40
2024/01/03 07:16:45;;;;;;;15.75;1.90;;;10.10;99.90;;;;;;20843267;28;20044;-40
2024/01/03 07:26:45;;;;;;;15.07;2.10;;;10.10;99.90;;;;;;20851647;28;20552;-40
2024/01/03 07:36:46;;;;;;;11.07;1.88;;;10.10;99.90;;;;;;20875853;28;20075;-40
2024/01/03 07:46:47;;;;;;;16.85;1.70;;;10.00;99.90;;;;;;20876037;28;20047;-40
2024/01/03 07:56:47;;;;;;;15.63;2.28;;;9.90;99.90;;;;;;20879145;28;20053;-40
2024/01/03 08:06:48;;;;;;;16.15;2.88;;;9.90;99.90;;;;;;20874628;28;20378;-40
2024/01/03 08:16:49;;;;;;;20.25;2.20;;;9.90;99.90;;;;;;20871258;28;20178;-40
2024/01/03 08:26:49;;;;;;;16.95;2.90;;;10.10;99.90;;;;;;20877533;28;20045;-39
2024/01/03 08:36:50;;;;;;;22.95;2.40;;;10.10;99.90;;;;;;20868639;28;20053;-39
2024/01/03 08:46:50;;;;;;;20.42;2.65;;;10.10;99.90;;;;;;20835185;28;20033;-39
2024/01/03 08:56:51;;;;;;;17.05;2.65;;;10.20;99.90;;;;;;20869402;28;20582;-39
2024/01/03 09:06:52;;;;;;;18.63;2.70;;;10.30;99.90;;;;;;20858868;28;20041;-39
2024/01/03 09:16:53;;;;;;;16.65;2.35;;;10.30;97.30;;;;;;20854926;28;20041;-39
2024/01/03 09:26:54;;;;;;;12.50;2.30;;;10.50;84.10;;;;;;20832070;28;20037;-40
2024/01/03 09:36:54;;;;;;;18.10;2.25;;;10.50;66.70;;;;;;20856865;28;20068;-39
2024/01/03 09:46:56;;;;;;;6.68;1.05;;;10.70;58.30;;;;;;20825645;28;21647;-39
2024/01/03 09:56:56;;;;;;;7.75;1.30;;;10.50;72.40;;;;;;20828386;28;20045;-39
2024/01/03 10:06:58;;;;;;;13.00;2.03;;;10.00;99.90;;;;;;20856747;28;20041;-40
2024/01/03 10:17:08;;;;;;;19.20;2.85;;;10.10;99.90;;;;;;20858560;28;20384;-39
2024/01/03 10:27:10;;;;;;;20.88;2.60;;;10.20;99.90;;;;;;20862546;28;20041;-39
2024/01/03 10:37:11;;;;;;;15.82;1.88;;;10.10;99.90;;;;;;20827673;28;20056;-39
2024/01/03 10:47:12;;;;;;;12.48;1.88;;;10.30;99.90;;;;;;20853408;28;20037;-39
2024/01/03 10:57:16;;;;;;;15.07;2.15;;;10.40;99.90;;;;;;20857654;28;20075;-38
2024/01/03 11:07:48;;;;;;;16.55;2.10;;;10.50;97.40;;;;;;20852352;28;20041;-39
2024/01/03 11:17:48;;;;;;;17.08;3.85;;;10.60;66.50;;;;;;20832749;28;20488;-39
2024/01/03 11:27:49;;;;;;;19.08;2.50;;;10.60;52.50;;;;;;20859542;28;20472;-40
2024/01/03 11:37:52;;;;;;;16.45;2.40;;;10.70;33.60;;;;;;20858357;28;20061;-40
2024/01/03 11:47:53;;;;;;;20.20;2.88;;;10.80;29.10;;;;;;20860210;28;20048;-39
2024/01/03 11:58:02;;;;;;;16.17;2.35;;;11.00;22.80;;;;;;20856808;28;20055;-39
2024/01/03 12:08:03;;;;;;;22.38;3.17;;;11.00;14.40;;;;;;20858526;28;20045;-40
2024/01/03 12:18:07;;;;;;;23.13;3.72;;;11.00;15.90;;;;;;20847788;28;20049;-40
2024/01/03 12:28:09;;;;;;;22.15;3.63;;;11.00;19.50;;;;;;20821279;28;20044;-39
2024/01/03 12:38:09;;;;;;;27.38;4.47;;;11.00;29.70;;;;;;20863493;28;20405;-40
2024/01/03 12:48:10;;;;;;;24.30;3.08;;;10.60;97.60;;;;;;20869063;28;20076;-40
2024/01/03 12:58:10;;;;;;;23.95;3.55;;;10.70;99.90;;;;;;20826370;28;20076;-40
2024/01/03 13:08:11;;;;;;;26.27;3.17;;;10.60;99.90;;;;;;20866121;28;20501;-40
2024/01/03 13:18:12;;;;;;;22.42;3.47;;;10.40;97.10;;;;;;20864415;28;20520;-39
2024/01/03 13:28:12;;;;;;;23.50;3.05;;;10.40;98.50;;;;;;20821689;28;20389;-39
2024/01/03 13:38:13;;;;;;;23.25;2.92;;;10.70;78.60;;;;;;20870123;28;20059;-39
2024/01/03 13:48:14;;;;;;;31.15;3.78;;;10.80;73.70;;;;;;20860782;28;20053;-39
2024/01/03 13:58:15;;;;;;;24.17;3.40;;;10.80;63.30;;;;;;20864086;28;20049;-40
2024/01/03 14:08:16;;;;;;;25.15;4.65;;;10.60;67.80;;;;;;20861371;28;20111;-39
2024/01/03 14:18:16;;;;;;;24.08;3.97;;;10.60;67.90;;;;;;20852865;28;20060;-39
2024/01/03 14:28:20;;;;;;;12.80;2.28;;;10.60;70.80;;;;;;20861071;28;20033;-40
2024/01/03 14:38:21;;;;;;;11.23;1.83;;;10.30;87.40;;;;;;20853057;28;20057;-40
2024/01/03 14:48:21;;;;;;;10.47;1.27;;;10.00;99.90;;;;;;20856757;28;20099;-39
2024/01/03 14:58:24;;;;;;;10.38;1.48;;;9.80;99.90;;;;;;20860565;28;20444;-40
2024/01/03 15:08:25;;;;;;;11.43;1.30;;;9.30;99.90;;;;;;20859015;28;20079;-41
2024/01/03 15:18:25;;;;;;;8.38;2.53;;;9.30;99.90;;;;;;20836783;28;20528;-40
2024/01/03 15:28:29;;;;;;;10.60;1.20;;;9.30;99.90;;;;;;20862222;28;20604;-40
2024/01/03 15:38:29;;;;;;;6.95;1.15;;;9.30;99.90;;;;;;20860444;28;20045;-40
2024/01/03 15:48:30;;;;;;;7.28;1.30;;;9.20;99.90;;;;;;20867576;28;20048;-40
2024/01/03 15:58:31;;;;;;;10.10;2.03;;;9.20;99.90;;;;;;20875860;28;20666;-40
2024/01/03 16:08:31;;;;;;;16.55;2.35;;;9.10;99.90;;;;;;20873065;28;20554;-40
2024/01/03 16:18:32;;;;;;;10.02;2.25;;;9.10;99.90;;;;;;20872959;28;20060;-40
2024/01/03 16:28:32;;;;;;;15.50;2.42;;;9.00;99.90;;;;;;20856493;28;20041;-40
2024/01/03 16:38:33;;;;;;;21.08;3.15;;;9.20;99.90;;;;;;20859246;28;20056;-40
2024/01/03 16:48:36;;;;;;;9.25;2.58;;;9.30;99.90;;;;;;20867894;28;20053;-40
2024/01/03 16:58:37;;;;;;;12.63;2.65;;;9.30;99.90;;;;;;20868003;28;20055;-40
2024/01/03 17:08:37;;;;;;;18.88;3.90;;;9.30;99.90;;;;;;20867176;28;20049;-40
2024/01/03 17:18:38;;;;;;;17.35;3.42;;;9.20;99.90;;;;;;20860533;28;20727;-40
2024/01/03 17:28:39;;;;;;;13.85;3.30;;;9.20;99.90;;;;;;20852430;28;20064;-41
2024/01/03 17:38:40;;;;;;;15.38;3.13;;;9.10;99.90;;;;;;20852078;28;20049;-40
2024/01/03 17:48:41;;;;;;;9.90;1.52;;;9.20;99.90;;;;;;20862647;28;20052;-41
2024/01/03 17:58:42;;;;;;;9.80;1.60;;;9.20;99.90;;;;;;20852984;28;20107;-41
2024/01/03 18:08:44;;;;;;;4.38;1.00;;;9.00;99.90;;;;;;20859332;28;20601;-41
2024/01/03 18:18:44;;;;;;;5.25;1.30;;;8.70;99.90;;;;;;20859687;28;20167;-41
2024/01/03 18:28:45;;;;;;;6.95;1.23;;;8.70;99.90;;;;;;20855340;28;20045;-40
2024/01/03 18:38:45;;;;;;;7.57;1.65;;;8.60;99.90;;;;;;20850923;28;20061;-41
2024/01/03 18:48:46;;;;;;;6.63;1.70;;;8.60;99.90;;;;;;20848733;28;20037;-40
2024/01/03 18:58:47;;;;;;;11.00;1.70;;;8.60;99.90;;;;;;20849246;28;20059;-40
2024/01/03 19:08:47;;;;;;;8.80;2.03;;;8.60;99.90;;;;;;20850769;28;20126;-41
2024/01/03 19:18:48;;;;;;;8.02;1.90;;;8.70;99.90;;;;;;20852036;28;20102;-40
2024/01/03 19:28:49;;;;;;;12.65;2.08;;;8.70;99.90;;;;;;20870583;28;20555;-40
2024/01/03 19:38:50;;;;;;;12.32;2.33;;;8.70;99.90;;;;;;20863497;28;20049;-40
2024/01/03 19:48:50;;;;;;;9.30;1.67;;;8.80;99.90;;;;;;20864137;28;20068;-40
2024/01/03 19:58:51;;;;;;;8.60;1.70;;;8.90;99.90;;;;;;20866963;28;20041;-40
2024/01/03 20:08:52;;;;;;;9.70;2.05;;;8.90;99.90;;;;;;20862730;28;20045;-40
2024/01/03 20:18:53;;;;;;;9.80;2.17;;;8.80;99.90;;;;;;20843631;28;20508;-40
2024/01/03 20:28:54;;;;;;;5.70;1.30;;;8.80;99.90;;;;;;20851407;28;20091;-41
2024/01/03 20:39:00;;;;;;;5.03;1.08;;;8.70;99.90;;;;;;20866477;28;20056;-40
2024/01/03 20:49:01;;;;;;;5.13;1.17;;;8.70;99.90;;;;;;20868022;28;20083;-40
2024/01/03 20:59:01;;;;;;;3.75;1.50;;;8.50;99.90;;;;;;20869137;28;20045;-40
2024/01/03 21:09:02;;;;;;;8.75;1.50;;;8.50;99.90;;;;;;20864586;28;20045;-40
2024/01/03 21:19:03;;;;;;;6.32;1.50;;;8.40;99.90;;;;;;20864958;28;20068;-40
2024/01/03 21:29:04;;;;;;;4.25;1.40;;;8.40;99.90;;;;;;20864605;28;20045;-40
2024/01/03 21:39:06;;;;;;;7.72;1.20;;;8.40;99.90;;;;;;20864022;28;20080;-40
2024/01/03 21:49:07;;;;;;;6.85;1.35;;;8.40;99.90;;;;;;20853725;28;20063;-41
2024/01/03 21:59:08;;;;;;;9.07;2.40;;;8.40;99.90;;;;;;20860943;28;20562;-40
2024/01/03 22:09:08;;;;;;;14.02;2.33;;;8.40;99.90;;;;;;20859156;28;20080;-41
2024/01/03 22:19:09;;;;;;;9.47;2.90;;;8.40;99.90;;;;;;20860255;28;20044;-40
2024/01/03 22:29:10;;;;;;;6.20;2.25;;;8.50;99.90;;;;;;20862152;28;20488;-41
2024/01/03 22:39:10;;;;;;;9.07;2.25;;;8.70;99.90;;;;;;20862938;28;23072;-40
2024/01/03 22:49:11;;;;;;;5.15;2.10;;;8.70;99.90;;;;;;20839737;28;20114;-41
2024/01/03 22:59:12;;;;;;;6.45;1.88;;;8.70;99.90;;;;;;20855034;28;20055;-41
2024/01/03 23:09:13;;;;;;;9.60;3.15;;;8.60;99.90;;;;;;20846638;28;20344;-40
2024/01/03 23:19:14;;;;;;;7.32;1.98;;;8.60;99.90;;;;;;20863261;28;20041;-40
2024/01/03 23:29:15;;;;;;;8.70;1.67;;;8.60;99.90;;;;;;20858427;28;20099;-41
2024/01/03 23:39:16;;;;;;;5.40;1.45;;;8.60;99.90;;;;;;20858150;28;20539;-40
2024/01/03 23:49:16;;;;;;;5.65;0.90;;;8.70;99.90;;;;;;20856954;28;20041;-40
2024/01/03 23:59:17;;;;;;;6.03;1.15;;;8.60;99.90;;;;;;20859379;28;20128;-41
